Terminal Aerodrome Forecast
Issued by NWS Binghamton, NY

Home | Current Version | Previous Version | Text Only | Print | Product List | Glossary On
Versions: 1 2 3 4 5 6 7 8 9 10 11 12 13 14 15 16 17 18
997
FTUS41 KBGM 300544 RRA
TAFSYR
TAF
KSYR 300544Z 3006/3106 11006KT P6SM SCT060
     FM301700 18010KT P6SM -SHRA BKN070
      TEMPO 3018/3022 18011G22KT 4SM -TSRA BR BKN040CB
     FM310000 20005KT P6SM SCT040
     FM310300 VRB04KT P6SM BKN035=

USA.gov is the U.S. government's official web portal to all federal, state and local government web resources and services.